Whiting Field Naval Air Station South Airport Milton US
ICAO: KNDZ
IATA: NDZ
Category: Medium
Scheduled Services: No

Elevation: 177 ft
TransAlt. 18000 ft.

Airport Communications:
PENSACOLA APP/DEP:124.85
ATIS:27.357
CLNC DEL:35.56
GND:34.68
BASE OPS:23.37
PMSV METRO:31.695
TWR:121.4

KNDZ Zoom In..

Runways:

(A) RW 05 length 5997 ft width 200 ft
---- / hdg 49

(B) RW 14 length 6001 ft width 200 ft
---- / hdg 139

(C) RW 23 length 5997 ft width 200 ft
---- / hdg 229

(D) RW 32 length 6001 ft width 200 ft
ILS 110.55 / hdg 319

Location; KNDZ
Day. 20 / Time. 19.56 Zulu
* Altimeter: 29.93
* Temperature: 33° c. 91.4°f.
* Wind from: VRB° Speed 04 kn.
Dewpoint: 25° c.
Visibility: 10 Statute Miles.
Clouds: Scattered 3300 ft.
Clouds: Scattered 25000 ft.

KNDZ 201956Z VRB04KT 10SM SCT033 SCT250 33/25 A2993 RMK AO2 SLP121 T03280250 $


Wind From VRB°
Speed 04 kn.

 
 
jpsmedia.com for Web Design worldairports.se 2018   terms of use